.
WxDataArchive / Data Records for 2011-04-04
2011-04-03 April 2011 2011-04-05

Data Records for Monday, 04 April 2011

Time	Temp	Chill	HIndex	Humid	Dewpt	 Wind 	HiWind	WindDir	Rain 	Barom 
-----	----	-----	------	-----	-----	------	------	-------	-----	----- 
00:00	64.0	64.0	64.0	54	47.0	0	6	90	0.00	29.369 
00:05	64.0	64.0	64.0	54	47.0	0	5	225	0.00	29.369 
00:10	64.0	64.0	64.0	54	47.0	0	3	225	0.00	29.369 
00:15	64.2	64.2	64.2	54	47.2	1	4	248	0.00	29.362 
00:20	64.2	64.2	64.2	54	47.2	1	4	248	0.00	29.362 
00:25	64.5	64.5	64.5	54	47.5	1	5	248	0.00	29.362 
00:30	64.7	64.7	64.7	54	47.7	1	5	225	0.00	29.353 
00:35	64.8	64.8	64.8	54	47.8	2	5	248	0.00	29.353 
00:40	64.8	64.8	64.8	54	47.8	2	4	270	0.00	29.353 
00:45	64.8	64.8	64.8	54	47.8	2	5	248	0.00	29.350 
00:50	64.8	64.8	64.8	54	47.8	2	6	248	0.00	29.350 
00:55	65.0	65.0	65.0	54	47.9	2	7	248	0.00	29.350 
01:00	65.0	65.0	65.0	54	47.9	1	4	248	0.00	29.355 
01:05	65.3	65.3	65.3	54	48.2	2	5	248	0.00	29.355 
01:10	65.5	65.5	65.5	54	48.4	2	5	248	0.00	29.355 
01:15	65.6	65.6	65.6	54	48.5	2	6	248	0.00	29.344 
01:20	65.6	65.6	65.6	54	48.5	3	7	248	0.00	29.344 
01:25	65.8	65.8	65.8	54	48.7	3	6	248	0.00	29.344 
01:30	65.6	65.6	65.6	54	48.5	2	7	248	0.00	29.341 
01:35	65.5	65.5	65.5	55	48.9	2	6	248	0.00	29.341 
01:40	65.3	65.3	65.3	55	48.7	2	7	248	0.00	29.341 
01:45	65.0	65.0	65.0	56	48.9	2	5	248	0.00	29.344 
01:50	64.8	64.8	64.8	56	48.7	2	5	248	0.00	29.344 
01:55	64.7	64.7	64.7	57	49.1	1	5	248	0.00	29.344 
02:00	64.5	64.5	64.5	57	48.9	2	5	248	0.00	29.342 
02:05	64.5	64.5	64.5	58	49.4	1	5	315	0.00	29.342 
02:10	64.7	64.7	64.7	58	49.6	3	9	270	0.00	29.342 
02:15	65.2	65.2	65.2	58	50.0	3	12	248	0.00	29.331 
02:20	66.0	66.0	66.0	58	50.8	4	12	225	0.00	29.331 
02:25	66.9	66.9	66.9	57	51.2	3	6	248	0.00	29.331 
02:30	67.9	67.9	67.9	57	52.1	4	11	248	0.00	29.325 
02:35	68.9	68.9	68.9	56	52.5	4	14	270	0.00	29.325 
02:40	69.8	69.8	69.8	55	52.9	5	14	270	0.00	29.325 
02:45	70.1	70.1	70.1	55	53.2	4	10	270	0.00	29.321 
02:50	70.3	70.3	70.3	55	53.4	5	14	270	0.00	29.321 
02:55	70.3	70.3	70.3	56	53.8	5	12	248	0.00	29.321 
03:00	70.3	70.3	70.3	56	53.8	5	16	248	0.00	29.318 
03:05	70.3	70.3	70.3	56	53.8	4	11	248	0.00	29.318 
03:10	70.3	70.3	70.3	57	54.3	5	13	248	0.00	29.318 
03:15	70.1	70.1	70.1	57	54.1	4	13	248	0.00	29.308 
03:20	70.1	70.1	70.1	57	54.1	5	12	248	0.00	29.308 
03:25	70.1	70.1	70.1	58	54.6	4	9	248	0.00	29.308 
03:30	69.9	69.9	69.9	58	54.4	4	10	248	0.00	29.314 
03:35	69.9	69.9	69.9	58	54.4	4	10	248	0.00	29.314 
03:40	69.8	69.8	69.8	58	54.3	3	6	248	0.00	29.314 
03:45	69.4	69.4	69.4	58	54.0	3	12	248	0.00	29.321 
03:50	69.4	69.4	69.4	58	54.0	4	7	248	0.00	29.321 
03:55	69.4	69.4	69.4	58	54.0	3	6	248	0.00	29.321 
04:00	69.4	69.4	69.4	58	54.0	3	7	248	0.00	29.331 
04:05	69.4	69.4	69.4	58	54.0	4	11	248	0.00	29.331 
04:10	69.6	69.6	69.6	58	54.2	4	10	248	0.00	29.331 
04:15	69.6	69.6	69.6	58	54.2	4	12	248	0.00	29.328 
04:20	69.8	69.8	69.8	58	54.3	4	10	248	0.00	29.328 
04:25	69.8	69.8	69.8	58	54.3	5	10	248	0.00	29.328 
04:30	69.9	69.9	69.9	58	54.4	4	9	248	0.00	29.325 
04:35	70.1	70.1	70.1	58	54.6	4	8	248	0.00	29.325 
04:40	70.1	70.1	70.1	58	54.6	4	9	270	0.00	29.325 
04:45	69.9	69.9	69.9	59	54.9	3	7	248	0.00	29.316 
04:50	69.9	69.9	69.9	59	54.9	3	9	248	0.00	29.316 
04:55	69.9	69.9	69.9	59	54.9	4	12	248	0.00	29.316 
05:00	69.9	69.9	69.9	60	55.4	3	7	248	0.00	29.316 
05:05	69.8	69.8	69.8	60	55.3	3	9	248	0.00	29.316 
05:10	69.8	69.8	69.8	61	55.7	4	9	248	0.00	29.316 
05:15	69.8	69.8	69.8	61	55.7	4	11	248	0.00	29.316 
05:20	69.9	69.9	69.9	62	56.3	3	8	248	0.00	29.316 
05:25	69.3	69.3	69.3	68	58.3	3	9	248	0.01	29.316 
05:30	68.1	68.1	68.1	71	58.3	3	6	248	0.00	29.317 
05:35	67.6	67.6	67.6	72	58.2	2	5	248	0.00	29.317 
05:40	67.3	67.3	67.3	72	58.0	1	4	248	0.00	29.317 
05:45	67.4	67.4	67.4	71	57.7	3	9	248	0.00	29.318 
05:50	67.8	67.8	67.8	70	57.6	3	10	248	0.00	29.318 
05:55	67.1	67.1	67.1	77	59.6	4	9	248	0.06	29.318 
06:00	65.5	65.5	65.5	84	60.5	6	14	270	0.08	29.346 
06:05	64.0	64.0	64.0	85	59.4	6	17	248	0.02	29.346 
06:10	62.9	62.9	62.9	87	59.0	6	13	270	0.01	29.346 
06:15	62.0	62.0	62.0	88	58.4	4	13	248	0.02	29.343 
06:20	61.3	61.3	61.3	88	57.7	3	6	248	0.01	29.343 
06:25	61.0	61.0	61.0	89	57.7	2	7	248	0.00	29.343 
06:30	60.7	60.7	60.7	89	57.4	2	5	225	0.00	29.325 
06:35	60.7	60.7	60.7	90	57.7	1	3	248	0.00	29.325 
06:40	60.7	60.7	60.7	91	58.1	0	2	248	0.00	29.325 
06:45	60.7	60.7	60.7	91	58.1	1	4	248	0.00	29.324 
06:50	60.5	60.5	60.5	91	57.9	1	3	248	0.00	29.324 
06:55	60.2	60.2	60.2	91	57.6	1	3	248	0.00	29.324 
07:00	59.9	59.9	59.9	91	57.3	0	2	248	0.00	29.310 
07:05	59.6	59.6	59.6	91	57.0	0	2	248	0.00	29.310 
07:10	59.5	59.5	59.5	91	56.9	1	4	248	0.00	29.310 
07:15	59.6	59.6	59.6	92	57.3	2	4	248	0.00	29.326 
07:20	59.8	59.8	59.8	92	57.5	1	4	248	0.00	29.326 
07:25	59.9	59.9	59.9	92	57.6	2	6	248	0.00	29.326 
07:30	60.1	60.1	60.1	92	57.8	2	5	248	0.00	29.337 
07:35	60.4	60.4	60.4	92	58.1	2	6	248	0.00	29.337 
07:40	60.4	60.4	60.4	92	58.1	1	5	248	0.00	29.337 
07:45	60.5	60.5	60.5	92	58.2	2	5	248	0.00	29.340 
07:50	60.5	60.5	60.5	92	58.2	2	4	248	0.00	29.340 
07:55	60.5	60.5	60.5	91	57.9	2	4	248	0.00	29.340 
08:00	60.5	60.5	60.5	91	57.9	2	5	248	0.00	29.352 
08:05	60.5	60.5	60.5	90	57.5	2	5	225	0.00	29.352 
08:10	60.7	60.7	60.7	89	57.4	2	5	248	0.00	29.352 
08:15	60.7	60.7	60.7	88	57.1	3	7	248	0.00	29.355 
08:20	60.7	60.7	60.7	87	56.8	3	8	270	0.00	29.355 
08:25	60.7	60.7	60.7	86	56.5	2	6	225	0.00	29.355 
08:30	60.9	60.9	60.9	86	56.7	2	7	248	0.00	29.323 
08:35	60.7	60.7	60.7	86	56.5	2	6	270	0.00	29.323 
08:40	60.7	60.7	60.7	86	56.5	2	6	248	0.00	29.323 
08:45	60.7	60.7	60.7	86	56.5	2	9	248	0.00	29.325 
08:50	60.7	60.7	60.7	85	56.2	3	6	248	0.00	29.325 
08:55	60.9	60.9	60.9	88	57.3	3	9	248	0.00	29.325 
09:00	60.9	60.9	60.9	84	56.0	2	6	248	0.00	29.296 
09:05	60.9	60.9	60.9	84	56.0	2	5	248	0.00	29.296 
09:10	61.2	61.2	61.2	84	56.3	3	9	248	0.00	29.296 
09:15	61.2	61.2	61.2	84	56.3	3	9	248	0.00	29.302 
09:20	61.2	61.2	61.2	84	56.3	2	7	248	0.00	29.302 
09:25	61.3	61.3	61.3	84	56.4	4	11	248	0.00	29.302 
09:30	61.3	61.3	61.3	84	56.4	3	7	248	0.00	29.317 
09:35	61.3	61.3	61.3	84	56.4	3	5	248	0.00	29.317 
09:40	61.3	61.3	61.3	85	56.7	2	6	248	0.00	29.317 
09:45	61.3	61.3	61.3	85	56.7	3	5	248	0.00	29.340 
09:50	61.3	61.3	61.3	85	56.7	3	6	248	0.00	29.340 
09:55	61.3	61.3	61.3	85	56.7	2	5	248	0.00	29.340 
10:00	61.5	61.5	61.5	84	56.6	4	11	225	0.00	29.335 
10:05	61.6	61.6	61.6	84	56.7	2	6	248	0.00	29.335 
10:10	61.6	61.6	61.6	85	57.0	3	7	248	0.00	29.335 
10:15	61.6	61.6	61.6	85	57.0	2	9	270	0.01	29.272 
10:20	61.5	61.5	61.5	86	57.3	2	7	248	0.00	29.272 
10:25	61.2	61.2	61.2	87	57.3	2	5	248	0.00	29.272 
10:30	61.0	61.0	61.0	87	57.1	3	5	248	0.00	29.321 
10:35	61.0	61.0	61.0	88	57.4	2	6	248	0.00	29.321 
10:40	61.0	61.0	61.0	88	57.4	4	7	248	0.00	29.321 
10:45	61.2	61.2	61.2	88	57.6	5	14	248	0.01	29.335 
10:50	61.2	61.2	61.2	87	57.3	3	9	248	0.00	29.335 
10:55	61.2	61.2	61.2	87	57.3	3	8	248	0.00	29.335 
11:00	61.2	61.2	61.2	87	57.3	3	10	270	0.00	29.305 
11:05	61.2	61.2	61.2	87	57.3	2	6	202	0.00	29.305 
11:10	61.2	61.2	61.2	87	57.3	3	10	248	0.00	29.305 
11:15	61.2	61.2	61.2	87	57.3	2	7	248	0.00	29.299 
11:20	61.0	61.0	61.0	88	57.4	2	9	270	0.00	29.299 
11:25	60.9	60.9	60.9	88	57.3	3	6	248	0.00	29.299 
11:30	60.9	60.9	60.9	88	57.3	3	8	225	0.00	29.312 
11:35	60.7	60.7	60.7	89	57.4	4	10	248	0.00	29.312 
11:40	60.7	60.7	60.7	89	57.4	3	6	248	0.00	29.312 
11:45	59.9	59.9	59.9	88	56.3	4	8	270	0.00	29.321 
11:50	59.3	59.3	59.3	88	55.7	3	6	270	0.00	29.321 
11:55	58.9	58.9	58.9	87	55.0	4	10	270	0.00	29.321 
12:00	58.6	58.6	58.6	87	54.7	3	9	270	0.00	29.338 
12:05	58.4	58.4	58.4	88	54.9	3	5	270	0.00	29.338 
12:10	58.1	58.1	58.1	88	54.6	2	5	270	0.00	29.338 
12:15	57.5	57.5	57.5	88	54.0	4	11	270	0.00	29.359 
12:20	57.0	57.0	57.0	88	53.5	3	6	248	0.00	29.359 
12:25	56.5	56.5	56.5	88	53.0	4	7	270	0.00	29.359 
12:30	55.7	55.7	55.7	88	52.2	3	7	248	0.00	29.361 
12:35	55.1	55.1	55.1	89	51.9	4	7	248	0.00	29.361 
12:40	54.8	54.8	54.8	90	51.9	3	5	248	0.00	29.361 
12:45	54.5	54.5	54.5	91	51.9	2	5	292	0.00	29.370 
12:50	53.8	53.8	53.8	91	51.2	4	7	270	0.00	29.370 
12:55	53.2	53.2	53.2	90	50.3	4	9	270	0.00	29.370 
13:00	52.8	52.8	52.8	90	49.9	3	9	270	0.00	29.365 
13:05	52.5	52.5	52.5	89	49.4	3	5	248	0.00	29.365 
13:10	52.5	52.5	52.5	89	49.4	1	3	248	0.01	29.365 
13:15	52.3	52.3	52.3	89	49.2	2	3	315	0.00	29.357 
13:20	52.2	52.2	52.2	90	49.4	1	3	315	0.00	29.357 
13:25	52.0	52.0	52.0	90	49.2	2	4	315	0.00	29.357 
13:30	51.7	51.7	51.7	90	48.9	3	6	338	0.00	29.362 
13:35	51.4	51.4	51.4	90	48.6	3	5	292	0.00	29.362 
13:40	51.1	51.1	51.1	90	48.3	3	9	292	0.00	29.362 
13:45	50.4	50.4	50.4	89	47.3	3	5	292	0.01	29.394 
13:50	49.4	49.4	49.4	89	46.3	3	8	248	0.00	29.394 
13:55	48.8	48.8	48.8	89	45.7	3	5	338	0.01	29.394 
14:00	48.5	48.5	48.5	90	45.7	3	7	270	0.01	29.411 
14:05	48.2	48.2	48.2	90	45.4	3	6	270	0.00	29.411 
14:10	47.9	47.9	47.9	90	45.1	3	6	248	0.00	29.411 
14:15	47.4	45.9	47.4	89	44.3	4	11	315	0.00	29.410 
14:20	46.8	46.8	46.8	89	43.7	3	6	292	0.00	29.410 
14:25	46.4	46.4	46.4	89	43.3	3	6	292	0.00	29.410 
14:30	46.0	46.0	46.0	89	42.9	3	5	248	0.00	29.417 
14:35	45.7	45.7	45.7	88	42.4	2	4	248	0.00	29.417 
14:40	45.7	45.7	45.7	88	42.4	3	5	248	0.00	29.417 
14:45	45.5	45.5	45.5	87	41.9	2	5	270	0.00	29.407 
14:50	45.5	45.5	45.5	87	41.9	1	4	248	0.00	29.407 
14:55	45.7	45.7	45.7	87	42.1	2	3	248	0.00	29.407 
15:00	45.7	45.7	45.7	87	42.1	1	3	248	0.00	29.400 
15:05	45.7	45.7	45.7	87	42.1	2	3	248	0.00	29.400 
15:10	45.7	45.7	45.7	86	41.8	2	6	248	0.01	29.400 
15:15	45.7	45.7	45.7	86	41.8	2	5	315	0.00	29.404 
15:20	45.7	45.7	45.7	85	41.5	2	6	292	0.00	29.404 
15:25	45.8	45.8	45.8	86	41.9	1	3	292	0.00	29.404 
15:30	46.1	46.1	46.1	86	42.1	1	2	292	0.00	29.402 
15:35	46.2	46.2	46.2	85	41.9	2	4	292	0.00	29.402 
15:40	46.2	46.2	46.2	85	41.9	1	3	292	0.00	29.402 
15:45	46.4	46.4	46.4	85	42.1	1	4	248	0.00	29.413 
15:50	46.5	46.5	46.5	85	42.2	1	3	248	0.00	29.413 
15:55	46.7	46.7	46.7	84	42.1	1	2	248	0.00	29.413 
16:00	46.7	46.7	46.7	84	42.1	1	3	248	0.00	29.406 
16:05	46.8	46.8	46.8	84	42.2	1	3	248	0.00	29.406 
16:10	46.8	46.8	46.8	85	42.5	1	3	248	0.00	29.406 
16:15	46.8	46.8	46.8	84	42.2	1	3	248	0.00	29.390 
16:20	47.0	47.0	47.0	84	42.4	1	3	248	0.00	29.390 
16:25	47.3	47.3	47.3	84	42.7	1	3	248	0.00	29.390 
16:30	47.6	47.6	47.6	84	43.0	1	3	315	0.00	29.373 
16:35	47.9	47.9	47.9	83	43.0	1	4	248	0.00	29.373 
16:40	48.0	48.0	48.0	81	42.5	1	3	248	0.00	29.373 
16:45	48.2	48.2	48.2	81	42.6	2	3	248	0.00	29.385 
16:50	48.3	48.3	48.3	80	42.4	2	4	270	0.00	29.385 
16:55	48.3	48.3	48.3	79	42.1	2	4	270	0.00	29.385 
17:00	48.0	48.0	48.0	76	40.8	3	7	270	0.00	29.423 
17:05	48.0	48.0	48.0	76	40.8	3	5	248	0.00	29.423 
17:10	47.9	47.9	47.9	75	40.4	2	3	270	0.00	29.423 
17:15	47.9	47.9	47.9	76	40.7	2	6	270	0.00	29.445 
17:20	47.7	47.7	47.7	74	39.8	2	5	315	0.00	29.445 
17:25	47.6	47.6	47.6	74	39.7	2	5	248	0.00	29.445 
17:30	47.4	47.4	47.4	74	39.5	2	3	248	0.00	29.444 
17:35	47.4	47.4	47.4	75	39.9	1	3	338	0.00	29.444 
17:40	47.3	47.3	47.3	76	40.1	1	3	315	0.00	29.444 
17:45	47.3	47.3	47.3	77	40.5	1	4	338	0.00	29.444 
17:50	47.1	47.1	47.1	77	40.3	1	4	338	0.00	29.444 
17:55	47.1	47.1	47.1	77	40.3	1	4	338	0.00	29.444 
18:00	47.0	47.0	47.0	78	40.5	1	3	315	0.00	29.444 
18:05	46.8	46.8	46.8	79	40.6	1	3	315	0.00	29.444 
18:10	46.7	46.7	46.7	79	40.5	1	2	315	0.00	29.444 
18:15	46.7	46.7	46.7	79	40.5	1	3	315	0.00	29.453 
18:20	46.5	46.5	46.5	79	40.3	0	2	315	0.00	29.453 
18:25	46.5	46.5	46.5	80	40.7	0	2	315	0.00	29.453 
18:30	46.4	46.4	46.4	80	40.6	1	3	315	0.00	29.451 
18:35	46.4	46.4	46.4	80	40.6	1	4	338	0.00	29.451 
18:40	46.2	46.2	46.2	81	40.7	1	5	338	0.00	29.451 
18:45	45.8	45.8	45.8	82	40.6	2	4	338	0.00	29.455 
18:50	45.5	45.5	45.5	84	41.0	1	3	315	0.00	29.455 
18:55	45.2	45.2	45.2	85	41.0	1	3	315	0.00	29.455 
19:00	44.8	44.8	44.8	87	41.2	1	4	292	0.00	29.458 
19:05	44.5	44.5	44.5	88	41.2	1	3	292	0.00	29.458 
19:10	44.3	44.3	44.3	89	41.3	1	2	315	0.00	29.458 
19:15	44.2	44.2	44.2	89	41.2	0	4	338	0.01	29.453 
19:20	44.1	44.1	44.1	90	41.4	0	3	338	0.00	29.453 
19:25	44.1	44.1	44.1	91	41.6	1	3	338	0.00	29.453 
19:30	43.9	43.9	43.9	91	41.4	1	3	315	0.00	29.463 
19:35	43.8	43.8	43.8	91	41.3	1	3	338	0.00	29.463 
19:40	43.8	43.8	43.8	92	41.6	1	4	338	0.00	29.463 
19:45	43.6	43.6	43.6	92	41.4	2	4	270	0.00	29.466 
19:50	43.6	43.6	43.6	92	41.4	2	4	292	0.00	29.466 
19:55	43.5	43.5	43.5	92	41.3	2	6	270	0.00	29.466 
20:00	43.3	43.3	43.3	92	41.1	2	4	270	0.00	29.480 
20:05	43.2	43.2	43.2	91	40.8	2	5	270	0.00	29.480 
20:10	43.2	43.2	43.2	91	40.8	3	7	270	0.00	29.480 
20:15	43.2	43.2	43.2	91	40.8	2	4	270	0.00	29.488 
20:20	43.1	43.1	43.1	91	40.7	2	6	315	0.00	29.488 
20:25	43.1	43.1	43.1	91	40.7	1	2	292	0.00	29.488 
20:30	43.1	43.1	43.1	91	40.7	1	3	315	0.00	29.485 
20:35	42.9	42.9	42.9	92	40.7	2	5	315	0.00	29.485 
20:40	42.8	42.8	42.8	92	40.6	2	5	270	0.01	29.485 
20:45	42.3	40.0	42.3	91	39.9	4	9	338	0.00	29.497 
20:50	41.5	41.5	41.5	91	39.1	3	7	338	0.00	29.497 
20:55	40.8	40.8	40.8	90	38.1	2	5	270	0.00	29.497 
21:00	40.6	40.6	40.6	90	37.9	1	5	338	0.00	29.505 
21:05	40.5	40.5	40.5	89	37.5	2	5	292	0.00	29.505 
21:10	40.5	40.5	40.5	88	37.2	2	3	292	0.00	29.505 
21:15	40.6	40.6	40.6	88	37.3	1	5	248	0.00	29.515 
21:20	40.6	40.6	40.6	87	37.0	1	2	315	0.00	29.515 
21:25	40.6	40.6	40.6	87	37.0	1	3	270	0.00	29.515 
21:30	40.6	40.6	40.6	86	36.7	1	4	270	0.00	29.517 
21:35	40.6	40.6	40.6	86	36.7	2	4	315	0.00	29.517 
21:40	40.6	40.6	40.6	85	36.4	1	5	338	0.00	29.517 
21:45	40.6	40.6	40.6	85	36.4	1	4	0	0.00	29.529 
21:50	40.6	40.6	40.6	84	36.2	1	4	270	0.00	29.529 
21:55	40.6	40.6	40.6	84	36.2	1	3	270	0.00	29.529 
22:00	40.6	40.6	40.6	84	36.2	1	4	315	0.00	29.537 
22:05	40.6	40.6	40.6	84	36.2	1	5	315	0.00	29.537 
22:10	40.6	40.6	40.6	83	35.8	2	4	315	0.00	29.537 
22:15	40.8	40.8	40.8	83	36.0	1	4	315	0.00	29.547 
22:20	40.8	40.8	40.8	82	35.7	1	4	270	0.00	29.547 
22:25	40.8	40.8	40.8	82	35.7	2	5	270	0.00	29.547 
22:30	40.9	40.9	40.9	81	35.5	2	5	225	0.00	29.560 
22:35	40.9	40.9	40.9	81	35.5	1	3	315	0.00	29.560 
22:40	40.9	40.9	40.9	80	35.2	2	5	270	0.00	29.560 
22:45	40.9	40.9	40.9	80	35.2	1	4	338	0.00	29.565 
22:50	40.9	40.9	40.9	78	34.6	1	3	248	0.00	29.565 
22:55	40.9	40.9	40.9	78	34.6	1	4	315	0.00	29.565 
23:00	41.1	41.1	41.1	77	34.4	1	3	338	0.00	29.580 
23:05	41.1	41.1	41.1	77	34.4	1	5	270	0.00	29.580 
23:10	40.9	40.9	40.9	76	33.9	2	6	270	0.00	29.580 
23:15	41.1	41.1	41.1	75	33.8	1	4	270	0.00	29.580 
23:20	41.1	41.1	41.1	74	33.5	2	4	338	0.00	29.580 
23:25	40.9	40.9	40.9	74	33.3	1	4	292	0.00	29.580 
23:30	40.9	40.9	40.9	74	33.3	1	4	292	0.00	29.579 
23:35	40.8	40.8	40.8	73	32.8	1	4	0	0.00	29.579 
23:40	40.8	40.8	40.8	72	32.5	2	5	0	0.00	29.579 
23:45	40.8	40.8	40.8	72	32.5	1	7	270	0.00	29.579 
23:50	40.8	40.8	40.8	71	32.1	2	5	292	0.00	29.579 
23:55	40.8	40.8	40.8	71	32.1	1	2	292	0.00	29.579 

CoCoRaHS
IN-AL-39
A2 Web Hosting
Creative Commons License
GoDaddy
search engine by freefind advanced

loaded 2018-11-19 10:14:48 • last modified 2010-11-18 10:43:29
Privacy PolicyDisclaimer
• wx.awcolley.com is powered by PmWiki v.2002016 •
• all content (unless otherwise noted) © 2018 A W Colley